createdAt,value
2018-09-06T00:02:19.404Z,24.11
2018-09-06T00:04:45.343Z,24.20
2018-09-06T00:07:11.305Z,24.24
2018-09-06T00:09:37.272Z,23.69
2018-09-06T00:12:03.218Z,23.74
2018-09-06T00:14:29.228Z,23.95
2018-09-06T00:16:55.238Z,24.07
2018-09-06T00:19:21.193Z,24.00
2018-09-06T00:21:47.157Z,23.61
2018-09-06T00:24:13.093Z,23.52
2018-09-06T00:26:39.057Z,23.74
2018-09-06T00:29:04.996Z,23.74
2018-09-06T00:31:30.949Z,23.99
2018-09-06T00:33:56.902Z,24.06
2018-09-06T00:36:22.880Z,24.22
2018-09-06T00:38:48.839Z,24.03
2018-09-06T00:41:14.765Z,24.27
2018-09-06T00:43:40.724Z,24.17
2018-09-06T00:46:06.666Z,24.47
2018-09-06T00:48:32.644Z,24.32
2018-09-06T00:50:58.608Z,24.46
2018-09-06T00:53:24.549Z,24.38
2018-09-06T00:55:50.511Z,24.10
2018-09-06T00:58:16.462Z,23.98
2018-09-06T01:00:42.463Z,23.91
2018-09-06T01:03:08.404Z,23.86
2018-09-06T01:05:34.384Z,23.37
2018-09-06T01:08:00.321Z,23.35
2018-09-06T01:10:26.297Z,23.54
2018-09-06T01:12:52.257Z,23.77
2018-09-06T01:15:18.221Z,23.86
2018-09-06T01:17:44.388Z,23.72
2018-09-06T01:20:10.366Z,23.58
2018-09-06T01:22:36.330Z,23.62
2018-09-06T01:25:02.261Z,23.82
2018-09-06T01:27:28.253Z,23.74
2018-09-06T01:29:54.189Z,23.95
2018-09-06T01:32:20.160Z,23.95
2018-09-06T01:34:46.112Z,24.08
2018-09-06T01:37:12.110Z,23.87
2018-09-06T01:39:38.076Z,23.92
2018-09-06T01:42:04.035Z,23.78
2018-09-06T01:44:29.983Z,23.73
2018-09-06T01:46:55.959Z,23.59
2018-09-06T01:49:21.914Z,23.70
2018-09-06T01:51:47.874Z,23.86
2018-09-06T01:54:13.851Z,23.75
2018-09-06T01:56:39.798Z,23.75
2018-09-06T01:59:05.771Z,23.70
2018-09-06T02:01:31.721Z,23.65
2018-09-06T02:03:57.701Z,23.48
2018-09-06T02:06:23.624Z,23.42
2018-09-06T02:08:49.594Z,23.39
2018-09-06T02:11:15.528Z,23.45
2018-09-06T02:13:41.475Z,23.54
2018-09-06T02:16:07.408Z,23.68
2018-09-06T02:18:33.370Z,23.58
2018-09-06T02:20:59.301Z,23.59
2018-09-06T02:23:25.266Z,23.50
2018-09-06T02:25:51.218Z,23.41
2018-09-06T02:28:17.175Z,23.36
2018-09-06T02:30:43.123Z,23.49
2018-09-06T02:33:09.085Z,23.77
2018-09-06T02:35:35.037Z,23.61
2018-09-06T02:38:00.980Z,23.59
2018-09-06T02:40:26.951Z,23.73
2018-09-06T02:42:52.875Z,23.36
2018-09-06T02:45:18.852Z,23.33
2018-09-06T02:47:44.825Z,23.19
2018-09-06T02:50:10.749Z,23.24
2018-09-06T02:52:36.676Z,23.46
2018-09-06T02:55:02.610Z,23.60
2018-09-06T02:57:28.583Z,23.59
2018-09-06T02:59:54.534Z,23.54
2018-09-06T03:02:20.507Z,23.51
2018-09-06T03:04:46.557Z,23.72
2018-09-06T03:07:12.494Z,23.57
2018-09-06T03:09:38.422Z,23.54
2018-09-06T03:12:04.379Z,23.63
2018-09-06T03:14:30.345Z,23.35
2018-09-06T03:16:56.332Z,23.21
2018-09-06T03:19:22.320Z,23.03
2018-09-06T03:21:48.327Z,23.14
2018-09-06T03:24:14.271Z,23.07
2018-09-06T03:26:40.243Z,22.99
2018-09-06T03:29:06.196Z,23.22
2018-09-06T03:31:32.136Z,23.25
2018-09-06T03:33:58.077Z,23.42
2018-09-06T03:36:24.025Z,23.46
2018-09-06T03:38:50.024Z,22.99
2018-09-06T03:41:15.957Z,22.86
2018-09-06T03:43:41.944Z,22.84
2018-09-06T03:46:07.919Z,22.74
2018-09-06T03:48:33.909Z,22.90
2018-09-06T03:50:59.873Z,22.89
2018-09-06T03:53:25.890Z,22.76
2018-09-06T03:55:51.822Z,23.08
2018-09-06T03:58:17.766Z,23.27
2018-09-06T04:00:43.721Z,23.18
2018-09-06T04:03:09.681Z,22.61
2018-09-06T04:05:35.635Z,22.53
2018-09-06T04:08:01.585Z,22.55
2018-09-06T04:10:27.562Z,22.54
2018-09-06T04:12:53.521Z,22.49
2018-09-06T04:15:19.532Z,22.72
2018-09-06T04:17:45.477Z,22.96
2018-09-06T04:20:11.475Z,22.80
2018-09-06T04:22:37.437Z,22.56
2018-09-06T04:25:03.432Z,22.44
2018-09-06T04:27:29.391Z,22.57
2018-09-06T04:29:55.498Z,22.63
2018-09-06T04:32:21.509Z,22.62
2018-09-06T04:34:47.473Z,22.51
2018-09-06T04:37:13.433Z,22.38
2018-09-06T04:39:39.373Z,22.43
2018-09-06T04:42:05.370Z,22.40
2018-09-06T04:44:31.371Z,22.65
2018-09-06T04:46:57.344Z,22.61
2018-09-06T04:49:23.318Z,22.53
2018-09-06T04:51:49.299Z,22.66
2018-09-06T04:54:15.253Z,22.79
2018-09-06T04:56:41.387Z,22.72
2018-09-06T04:59:07.353Z,22.79
2018-09-06T05:01:33.332Z,22.88
2018-09-06T05:03:59.272Z,22.60
2018-09-06T05:06:25.241Z,22.50
2018-09-06T05:08:51.193Z,22.66
2018-09-06T05:11:17.147Z,22.98
2018-09-06T05:13:43.122Z,22.94
2018-09-06T05:16:09.046Z,22.95
2018-09-06T05:18:34.972Z,23.08
2018-09-06T05:21:00.925Z,23.32
2018-09-06T05:23:26.893Z,23.54
2018-09-06T05:25:52.868Z,23.54
2018-09-06T05:28:18.814Z,23.41
2018-09-06T05:30:44.817Z,23.55
2018-09-06T05:33:10.786Z,23.69
2018-09-06T05:35:36.747Z,23.73
2018-09-06T05:38:02.693Z,23.86
2018-09-06T05:40:28.696Z,23.66
2018-09-06T05:42:54.720Z,23.53
2018-09-06T05:45:20.758Z,23.72
2018-09-06T05:47:46.725Z,23.77
2018-09-06T05:50:12.736Z,24.02
2018-09-06T05:52:38.712Z,24.05
2018-09-06T05:55:04.682Z,24.16
2018-09-06T05:57:30.683Z,23.67
2018-09-06T05:59:56.673Z,23.65
2018-09-06T06:02:22.628Z,23.78
2018-09-06T06:04:48.583Z,23.72
2018-09-06T06:07:14.547Z,23.51
2018-09-06T06:09:40.528Z,23.53
2018-09-06T06:12:06.471Z,23.26
2018-09-06T06:14:32.428Z,23.43
2018-09-06T06:16:58.366Z,23.84
2018-09-06T06:19:24.340Z,24.32
2018-09-06T06:21:50.305Z,24.54
2018-09-06T06:24:16.279Z,24.33
2018-09-06T06:26:42.252Z,24.63
2018-09-06T06:29:08.203Z,24.74
2018-09-06T06:31:34.152Z,24.74
2018-09-06T06:34:00.131Z,24.74
2018-09-06T06:36:26.095Z,24.73
2018-09-06T06:38:52.150Z,24.56
2018-09-06T06:41:18.130Z,24.66
2018-09-06T06:43:44.188Z,25.07
2018-09-06T06:46:10.163Z,25.37
2018-09-06T06:48:36.151Z,25.53
2018-09-06T06:51:02.127Z,25.81
2018-09-06T06:53:28.187Z,25.26
2018-09-06T06:55:54.148Z,26.10
2018-09-06T06:58:20.119Z,26.28
2018-09-06T07:00:46.099Z,26.44
2018-09-06T07:03:12.189Z,26.51
2018-09-06T07:05:38.150Z,26.28
2018-09-06T07:08:04.412Z,26.48
2018-09-06T07:10:30.342Z,26.65
2018-09-06T07:12:56.292Z,26.65
2018-09-06T07:15:22.266Z,26.63
2018-09-06T07:17:48.190Z,26.65
2018-09-06T07:20:14.167Z,26.90
2018-09-06T07:22:40.123Z,26.92
2018-09-06T07:27:39.496Z,26.28
2018-09-06T07:30:05.474Z,26.63
2018-09-06T07:32:31.445Z,26.80
2018-09-06T07:34:57.445Z,26.94
2018-09-06T07:37:23.392Z,27.04
2018-09-06T07:39:49.440Z,27.16
2018-09-06T07:42:15.395Z,27.19
2018-09-06T07:44:41.341Z,27.23
2018-09-06T07:47:07.317Z,27.27
2018-09-06T07:49:33.333Z,27.32
2018-09-06T07:51:59.329Z,27.41
2018-09-06T07:54:25.310Z,27.44
2018-09-06T07:56:51.254Z,27.10
2018-09-06T07:59:17.194Z,27.17
2018-09-06T08:01:43.192Z,26.82
2018-09-06T08:04:09.088Z,27.29
2018-09-06T08:06:35.031Z,27.29
2018-09-06T08:09:00.992Z,27.58
2018-09-06T08:11:26.972Z,27.58
2018-09-06T08:13:52.924Z,27.58
2018-09-06T08:16:18.862Z,27.42
2018-09-06T08:18:44.829Z,27.32
2018-09-06T08:21:10.787Z,27.62
2018-09-06T08:23:36.805Z,27.57
2018-09-06T08:26:02.752Z,27.68
2018-09-06T08:28:28.723Z,27.70
2018-09-06T08:30:54.885Z,27.61
2018-09-06T08:33:20.720Z,27.25
2018-09-06T08:35:46.656Z,27.27
2018-09-06T08:38:12.644Z,27.32
2018-09-06T08:40:38.608Z,27.45
2018-09-06T08:43:04.564Z,27.30
2018-09-06T08:45:30.547Z,26.83
2018-09-06T08:47:56.500Z,26.64
2018-09-06T08:50:22.446Z,26.47
2018-09-06T08:52:48.398Z,26.98
2018-09-06T08:55:14.363Z,26.82
2018-09-06T08:57:40.306Z,26.74
2018-09-06T09:00:06.292Z,26.45
2018-09-06T09:02:32.291Z,26.78
2018-09-06T09:04:58.280Z,26.29
2018-09-06T09:07:24.258Z,26.80
2018-09-06T09:09:50.213Z,26.91
2018-09-06T09:12:16.173Z,26.85
2018-09-06T09:14:42.146Z,26.48
2018-09-06T09:17:08.112Z,26.33
2018-09-06T09:19:34.111Z,26.50
2018-09-06T09:22:00.124Z,26.79
2018-09-06T09:24:26.054Z,26.64
2018-09-06T09:26:52.004Z,26.51
2018-09-06T09:29:17.996Z,26.57
2018-09-06T09:31:43.948Z,26.63
2018-09-06T09:34:09.902Z,26.83
2018-09-06T09:36:35.862Z,27.13
2018-09-06T09:39:01.847Z,26.72
2018-09-06T09:41:27.847Z,26.44
2018-09-06T09:43:53.874Z,26.69
2018-09-06T09:48:45.122Z,26.39
2018-09-06T09:51:11.082Z,26.86
2018-09-06T09:53:37.053Z,27.07
2018-09-06T09:56:03.009Z,27.16
2018-09-06T09:58:32.459Z,26.95
2018-09-06T10:00:58.595Z,26.42
2018-09-06T10:03:24.617Z,26.22
2018-09-06T10:05:50.582Z,26.53
2018-09-06T10:08:16.579Z,26.85
2018-09-06T10:10:42.517Z,26.94
2018-09-06T10:13:08.533Z,27.16
2018-09-06T10:15:34.505Z,27.20
2018-09-06T10:18:00.515Z,27.02
2018-09-06T10:20:26.478Z,26.58
2018-09-06T10:22:52.460Z,26.56
2018-09-06T10:25:18.418Z,26.89
2018-09-06T10:27:44.400Z,26.23
2018-09-06T10:30:10.364Z,26.15
2018-09-06T10:32:36.309Z,26.43
2018-09-06T10:35:02.267Z,26.65
2018-09-06T10:37:28.264Z,26.43
2018-09-06T10:39:54.307Z,26.36
2018-09-06T10:42:20.235Z,26.88
2018-09-06T10:44:46.193Z,26.79
2018-09-06T10:47:12.128Z,26.91
2018-09-06T10:49:38.114Z,25.99
2018-09-06T10:52:04.081Z,26.16
2018-09-06T10:54:30.038Z,26.12
2018-09-06T10:56:56.008Z,26.40
2018-09-06T10:59:21.951Z,26.37
2018-09-06T11:01:47.897Z,26.75
2018-09-06T11:04:13.872Z,27.13
2018-09-06T11:06:39.838Z,26.24
2018-09-06T11:09:05.808Z,26.45
2018-09-06T11:11:31.745Z,27.04
2018-09-06T11:13:57.793Z,27.34
2018-09-06T11:16:23.800Z,27.44
2018-09-06T11:18:49.814Z,26.85
2018-09-06T11:21:15.896Z,26.24
2018-09-06T11:23:41.780Z,26.45
2018-09-06T11:26:07.783Z,27.10
2018-09-06T11:28:33.773Z,27.46
2018-09-06T11:30:59.768Z,27.19
2018-09-06T11:33:25.802Z,26.36
2018-09-06T11:35:51.711Z,26.75
2018-09-06T11:38:17.665Z,27.26
2018-09-06T11:40:43.597Z,27.25
2018-09-06T11:43:09.577Z,27.50
2018-09-06T11:45:35.575Z,27.35
2018-09-06T11:48:01.552Z,27.15
2018-09-06T11:50:27.569Z,26.84
2018-09-06T11:52:53.542Z,26.74
2018-09-06T11:55:19.522Z,26.97
2018-09-06T11:57:45.457Z,26.89
2018-09-06T12:00:11.423Z,27.21
2018-09-06T12:02:37.438Z,27.14
2018-09-06T12:05:03.394Z,27.11
2018-09-06T12:07:29.344Z,27.11
2018-09-06T12:09:55.311Z,26.61
2018-09-06T12:12:21.271Z,27.16
2018-09-06T12:14:47.223Z,27.50
2018-09-06T12:17:13.210Z,27.63
2018-09-06T12:19:39.200Z,27.68
2018-09-06T12:22:05.172Z,26.95
2018-09-06T12:24:31.110Z,27.05
2018-09-06T12:26:57.085Z,26.26
2018-09-06T12:29:23.111Z,26.10
2018-09-06T12:31:49.091Z,26.73
2018-09-06T12:34:15.063Z,27.23
2018-09-06T12:36:41.024Z,27.56
2018-09-06T12:39:06.968Z,27.30
2018-09-06T12:41:32.943Z,27.55
2018-09-06T12:43:58.917Z,27.66
2018-09-06T12:46:24.901Z,27.43
2018-09-06T12:48:50.925Z,27.57
2018-09-06T12:51:16.923Z,27.68
2018-09-06T12:53:42.896Z,27.78
2018-09-06T12:56:08.887Z,27.61
2018-09-06T12:58:34.892Z,27.55
2018-09-06T13:01:00.873Z,27.07
2018-09-06T13:03:26.839Z,26.99
2018-09-06T13:05:52.816Z,26.96
2018-09-06T13:08:18.788Z,26.69
2018-09-06T13:10:44.766Z,27.03
2018-09-06T13:13:10.737Z,27.42
2018-09-06T13:15:36.753Z,27.70
2018-09-06T13:18:02.741Z,27.77
2018-09-06T13:20:28.700Z,27.79
2018-09-06T13:22:54.658Z,27.85
2018-09-06T13:25:20.643Z,27.91
2018-09-06T13:27:46.588Z,27.91
2018-09-06T13:30:12.581Z,27.91
2018-09-06T13:32:38.522Z,27.91
2018-09-06T13:35:04.490Z,27.90
2018-09-06T13:37:30.448Z,27.90
2018-09-06T13:42:28.886Z,27.38
2018-09-06T13:44:54.866Z,27.60
2018-09-06T13:47:20.812Z,27.27
2018-09-06T13:49:46.779Z,27.19
2018-09-06T13:52:12.825Z,27.25
2018-09-06T13:54:38.740Z,27.42
2018-09-06T13:57:04.740Z,27.69
2018-09-06T13:59:30.818Z,27.79
2018-09-06T14:01:56.780Z,27.85
2018-09-06T14:04:22.760Z,27.81
2018-09-06T14:06:48.738Z,27.87
2018-09-06T14:09:14.687Z,27.89
2018-09-06T14:11:40.644Z,27.89
2018-09-06T14:14:06.628Z,27.90
2018-09-06T14:16:32.656Z,27.79
2018-09-06T14:18:58.617Z,27.43
2018-09-06T14:21:24.579Z,27.36
2018-09-06T14:26:22.871Z,27.14
2018-09-06T14:28:48.873Z,27.35
2018-09-06T14:31:14.839Z,27.52
2018-09-06T14:33:40.814Z,27.58
2018-09-06T14:36:06.798Z,27.63
2018-09-06T14:38:32.825Z,27.60
2018-09-06T14:40:58.757Z,27.59
2018-09-06T14:43:24.716Z,27.78
2018-09-06T14:45:50.677Z,27.82
2018-09-06T14:48:16.665Z,27.90
2018-09-06T14:50:42.688Z,27.68
2018-09-06T14:53:08.647Z,27.49
2018-09-06T14:55:34.678Z,27.50
2018-09-06T14:58:00.663Z,27.36
2018-09-06T15:00:26.623Z,27.19
2018-09-06T15:02:52.566Z,27.38
2018-09-06T15:05:18.623Z,27.51
2018-09-06T15:07:44.629Z,27.28
2018-09-06T15:10:10.629Z,27.57
2018-09-06T15:12:36.630Z,27.20
2018-09-06T15:15:02.609Z,26.93
2018-09-06T15:17:28.603Z,27.38
2018-09-06T15:19:54.696Z,27.61
2018-09-06T15:22:20.695Z,27.79
2018-09-06T15:24:46.640Z,27.71
2018-09-06T15:27:12.802Z,27.77
2018-09-06T15:29:38.820Z,27.75
2018-09-06T15:32:04.778Z,27.68
2018-09-06T15:34:30.793Z,27.59
2018-09-06T15:36:56.910Z,27.48
2018-09-06T15:39:22.889Z,27.63
2018-09-06T15:41:48.859Z,27.72
2018-09-06T15:44:14.817Z,27.79
2018-09-06T15:46:40.805Z,27.85
2018-09-06T15:49:06.789Z,27.86
2018-09-06T15:51:32.808Z,27.86
2018-09-06T15:53:58.770Z,27.86
2018-09-06T15:56:24.793Z,27.89
2018-09-06T15:58:50.778Z,27.91
2018-09-06T16:01:16.741Z,27.89
2018-09-06T16:03:42.794Z,27.85
2018-09-06T16:06:08.764Z,27.84
2018-09-06T16:08:34.739Z,27.82
2018-09-06T16:11:00.730Z,27.79
2018-09-06T16:13:26.702Z,27.77
2018-09-06T16:15:52.703Z,27.84
2018-09-06T16:18:18.741Z,27.85
2018-09-06T16:20:44.743Z,27.91
2018-09-06T16:23:10.719Z,27.81
2018-09-06T16:25:36.670Z,27.88
2018-09-06T16:28:02.644Z,27.89
2018-09-06T16:30:28.626Z,27.89
2018-09-06T16:32:55.117Z,27.92
2018-09-06T16:35:21.203Z,27.96
2018-09-06T16:37:47.199Z,27.83
2018-09-06T16:40:13.140Z,27.92
2018-09-06T16:42:39.203Z,27.95
2018-09-06T16:45:05.088Z,27.90
2018-09-06T16:47:31.054Z,27.89
2018-09-06T16:49:57.105Z,27.88
2018-09-06T16:52:23.119Z,27.88
2018-09-06T16:54:49.078Z,27.84
2018-09-06T16:57:15.910Z,27.83
2018-09-06T16:59:41.876Z,27.86
2018-09-06T17:02:07.892Z,27.75
2018-09-06T17:04:33.849Z,27.83
2018-09-06T17:07:01.018Z,27.72
2018-09-06T17:09:26.965Z,27.81
2018-09-06T17:11:52.990Z,27.94
2018-09-06T17:14:18.933Z,27.89
2018-09-06T17:16:44.896Z,27.95
2018-09-06T17:19:10.890Z,27.94
2018-09-06T17:21:37.884Z,27.93
2018-09-06T17:24:03.845Z,27.90
2018-09-06T17:26:29.790Z,27.79
2018-09-06T17:28:55.895Z,27.54
2018-09-06T17:31:21.874Z,27.40
2018-09-06T17:33:47.879Z,27.24
2018-09-06T17:36:13.910Z,27.26
2018-09-06T17:38:39.954Z,27.03
2018-09-06T17:41:05.923Z,27.06
2018-09-06T17:43:31.969Z,27.14
2018-09-06T17:45:57.948Z,27.11
2018-09-06T17:48:23.942Z,27.10
2018-09-06T17:50:49.907Z,26.94
2018-09-06T17:53:15.894Z,26.96
2018-09-06T17:55:41.930Z,27.15
2018-09-06T17:58:07.925Z,27.18
2018-09-06T18:00:33.901Z,27.20
2018-09-06T18:03:00.157Z,27.37
2018-09-06T18:05:26.114Z,27.25
2018-09-06T18:07:52.165Z,27.26
2018-09-06T18:10:18.141Z,27.29
2018-09-06T18:12:44.145Z,27.20
2018-09-06T18:15:10.110Z,27.06
2018-09-06T18:17:36.129Z,27.23
2018-09-06T18:20:02.095Z,27.26
2018-09-06T18:22:28.110Z,27.37
2018-09-06T18:24:54.113Z,27.24
2018-09-06T18:27:20.149Z,27.20
2018-09-06T18:29:46.118Z,27.26
2018-09-06T18:32:12.065Z,27.29
2018-09-06T18:34:38.068Z,27.47
2018-09-06T18:37:04.169Z,27.39
2018-09-06T18:39:30.315Z,27.54
2018-09-06T18:41:56.342Z,27.58
2018-09-06T18:44:22.380Z,27.70
2018-09-06T18:46:48.442Z,27.62
2018-09-06T18:49:14.864Z,27.46
2018-09-06T18:51:41.194Z,27.32
2018-09-06T18:54:07.191Z,27.43
2018-09-06T18:56:33.278Z,27.28
2018-09-06T18:58:59.424Z,27.36
2018-09-06T19:01:25.436Z,27.31
2018-09-06T19:03:51.508Z,27.48
2018-09-06T19:06:17.462Z,27.43
2018-09-06T19:08:43.465Z,27.21
2018-09-06T19:11:09.447Z,27.34
2018-09-06T19:13:35.615Z,27.54
2018-09-06T19:16:01.569Z,27.34
2018-09-06T19:18:27.549Z,27.22
2018-09-06T19:20:53.516Z,26.87
2018-09-06T19:23:19.485Z,26.61
2018-09-06T19:25:45.435Z,26.59
2018-09-06T19:28:11.401Z,26.62
2018-09-06T19:30:37.549Z,26.75
2018-09-06T19:33:03.606Z,26.50
2018-09-06T19:35:29.624Z,26.52
2018-09-06T19:37:55.632Z,26.85
2018-09-06T19:40:21.677Z,27.02
2018-09-06T19:42:47.641Z,27.13
2018-09-06T19:45:13.641Z,27.14
2018-09-06T19:47:39.722Z,26.95
2018-09-06T19:50:05.929Z,27.05
2018-09-06T19:52:31.899Z,27.05
2018-09-06T19:54:57.904Z,26.95
2018-09-06T19:57:23.890Z,26.65
2018-09-06T19:59:49.871Z,26.84
2018-09-06T20:02:15.838Z,26.98
2018-09-06T20:04:41.960Z,26.98
2018-09-06T20:07:07.988Z,27.06
2018-09-06T20:09:33.964Z,27.02
2018-09-06T20:12:01.436Z,26.95
2018-09-06T20:14:27.550Z,26.90
2018-09-06T20:16:53.585Z,26.78
2018-09-06T20:19:19.615Z,26.89
2018-09-06T20:21:45.621Z,26.92
2018-09-06T20:24:12.028Z,26.78
2018-09-06T20:26:38.048Z,26.85
2018-09-06T20:29:04.007Z,26.75
2018-09-06T20:31:30.046Z,26.59
2018-09-06T20:33:56.557Z,26.67
2018-09-06T20:36:22.529Z,26.69
2018-09-06T20:38:48.518Z,26.63
2018-09-06T20:41:14.542Z,26.56
2018-09-06T20:43:40.478Z,26.54
2018-09-06T20:46:06.468Z,26.54
2018-09-06T20:48:32.506Z,26.65
2018-09-06T20:50:58.517Z,26.60
2018-09-06T20:53:24.504Z,26.36
2018-09-06T20:55:50.454Z,26.43
2018-09-06T20:58:16.473Z,26.38
2018-09-06T21:00:42.461Z,26.40
2018-09-06T21:03:08.524Z,26.25
2018-09-06T21:05:34.517Z,26.14
2018-09-06T21:08:00.482Z,26.05
2018-09-06T21:10:26.455Z,26.06
2018-09-06T21:12:52.460Z,25.75
2018-09-06T21:15:18.415Z,25.74
2018-09-06T21:17:44.370Z,25.83
2018-09-06T21:20:10.345Z,25.88
2018-09-06T21:22:36.348Z,25.93
2018-09-06T21:25:02.344Z,25.94
2018-09-06T21:27:28.323Z,25.98
2018-09-06T21:29:54.327Z,25.99
2018-09-06T21:32:20.275Z,26.01
2018-09-06T21:34:46.241Z,26.03
2018-09-06T21:37:12.189Z,25.81
2018-09-06T21:39:38.160Z,25.89
2018-09-06T21:42:04.124Z,26.00
2018-09-06T21:44:30.084Z,26.11
2018-09-06T21:46:56.033Z,26.26
2018-09-06T21:49:22.019Z,25.99
2018-09-06T21:51:47.995Z,26.01
2018-09-06T21:54:13.944Z,25.97
2018-09-06T21:56:39.885Z,25.87
2018-09-06T21:59:05.839Z,25.91
2018-09-06T22:01:31.832Z,25.88
2018-09-06T22:03:57.777Z,25.66
2018-09-06T22:06:23.740Z,25.64
2018-09-06T22:08:49.706Z,25.70
2018-09-06T22:11:15.690Z,25.62
2018-09-06T22:13:41.647Z,25.78
2018-09-06T22:16:07.583Z,25.80
2018-09-06T22:18:33.539Z,25.66
2018-09-06T22:20:59.485Z,25.45
2018-09-06T22:23:25.430Z,25.67
2018-09-06T22:25:51.408Z,25.59
2018-09-06T22:28:17.357Z,25.42
2018-09-06T22:30:43.319Z,25.63
2018-09-06T22:33:09.291Z,25.56
2018-09-06T22:35:35.237Z,25.76
2018-09-06T22:38:01.175Z,24.93
2018-09-06T22:40:27.122Z,25.05
2018-09-06T22:42:53.079Z,25.28
2018-09-06T22:45:19.043Z,25.43
2018-09-06T22:47:45.017Z,25.28
2018-09-06T22:50:10.968Z,25.28
2018-09-06T22:52:36.965Z,25.23
2018-09-06T22:55:02.916Z,25.18
2018-09-06T22:57:28.872Z,25.34
2018-09-06T22:59:54.830Z,25.34
2018-09-06T23:02:20.801Z,25.49
2018-09-06T23:04:46.787Z,25.49
2018-09-06T23:07:12.751Z,25.57
2018-09-06T23:09:38.745Z,25.47
2018-09-06T23:12:04.698Z,25.41
2018-09-06T23:14:30.650Z,25.49
2018-09-06T23:16:56.598Z,25.61
2018-09-06T23:19:22.567Z,25.62
2018-09-06T23:21:48.516Z,25.63
2018-09-06T23:24:14.476Z,25.73
2018-09-06T23:26:40.457Z,25.45
2018-09-06T23:29:06.422Z,25.57
2018-09-06T23:31:32.368Z,25.46
2018-09-06T23:33:58.385Z,25.63
2018-09-06T23:36:24.343Z,25.64
2018-09-06T23:38:50.288Z,25.64
2018-09-06T23:41:16.256Z,25.67
2018-09-06T23:43:42.216Z,25.41
2018-09-06T23:46:08.147Z,25.63
2018-09-06T23:48:34.105Z,25.50
2018-09-06T23:51:00.071Z,25.64
2018-09-06T23:53:26.038Z,25.64
2018-09-06T23:55:51.997Z,25.64
2018-09-06T23:58:17.944Z,25.63
